sensor_id;sensor_type;location;lat;lon;timestamp;temperature;humidity
41533;DHT22;27262;-35.248;149.138;2024-03-08T00:00:17;23.40;59.80
41533;DHT22;27262;-35.248;149.138;2024-03-08T00:02:50;23.40;59.90
41533;DHT22;27262;-35.248;149.138;2024-03-08T00:05:21;23.40;59.80
41533;DHT22;27262;-35.248;149.138;2024-03-08T00:07:53;23.40;59.80
41533;DHT22;27262;-35.248;149.138;2024-03-08T00:10:23;23.40;59.90
41533;DHT22;27262;-35.248;149.138;2024-03-08T00:12:55;23.50;60.00
41533;DHT22;27262;-35.248;149.138;2024-03-08T00:15:27;23.50;60.10
41533;DHT22;27262;-35.248;149.138;2024-03-08T00:17:59;23.50;60.20
41533;DHT22;27262;-35.248;149.138;2024-03-08T00:20:29;23.50;60.20
41533;DHT22;27262;-35.248;149.138;2024-03-08T00:23:00;23.50;60.20
41533;DHT22;27262;-35.248;149.138;2024-03-08T00:25:32;23.60;60.30
41533;DHT22;27262;-35.248;149.138;2024-03-08T00:28:03;23.60;60.50
41533;DHT22;27262;-35.248;149.138;2024-03-08T00:30:34;23.60;60.50
41533;DHT22;27262;-35.248;149.138;2024-03-08T00:33:04;23.60;60.50
41533;DHT22;27262;-35.248;149.138;2024-03-08T00:35:35;23.60;60.50
41533;DHT22;27262;-35.248;149.138;2024-03-08T00:38:05;23.60;60.60
41533;DHT22;27262;-35.248;149.138;2024-03-08T00:40:38;23.60;60.60
41533;DHT22;27262;-35.248;149.138;2024-03-08T00:43:10;23.70;60.70
41533;DHT22;27262;-35.248;149.138;2024-03-08T00:45:43;23.70;60.70
41533;DHT22;27262;-35.248;149.138;2024-03-08T00:48:13;23.70;60.70
41533;DHT22;27262;-35.248;149.138;2024-03-08T00:50:44;23.70;60.60
41533;DHT22;27262;-35.248;149.138;2024-03-08T00:53:17;23.70;60.50
41533;DHT22;27262;-35.248;149.138;2024-03-08T00:55:48;23.80;60.50
41533;DHT22;27262;-35.248;149.138;2024-03-08T00:58:18;23.80;60.50
41533;DHT22;27262;-35.248;149.138;2024-03-08T01:00:49;23.80;60.60
41533;DHT22;27262;-35.248;149.138;2024-03-08T01:03:21;23.80;60.60
41533;DHT22;27262;-35.248;149.138;2024-03-08T01:05:52;23.80;60.60
41533;DHT22;27262;-35.248;149.138;2024-03-08T01:08:26;23.80;60.50
41533;DHT22;27262;-35.248;149.138;2024-03-08T01:10:57;23.80;60.60
41533;DHT22;27262;-35.248;149.138;2024-03-08T01:13:27;23.80;60.60
41533;DHT22;27262;-35.248;149.138;2024-03-08T01:15:58;23.90;60.60
41533;DHT22;27262;-35.248;149.138;2024-03-08T01:18:28;23.90;60.60
41533;DHT22;27262;-35.248;149.138;2024-03-08T01:20:59;23.90;60.60
41533;DHT22;27262;-35.248;149.138;2024-03-08T01:23:30;23.90;60.70
41533;DHT22;27262;-35.248;149.138;2024-03-08T01:26:00;23.90;60.70
41533;DHT22;27262;-35.248;149.138;2024-03-08T01:28:31;23.90;60.80
41533;DHT22;27262;-35.248;149.138;2024-03-08T01:31:04;23.90;60.80
41533;DHT22;27262;-35.248;149.138;2024-03-08T01:33:35;24.00;60.90
41533;DHT22;27262;-35.248;149.138;2024-03-08T01:36:06;24.00;60.80
41533;DHT22;27262;-35.248;149.138;2024-03-08T01:38:36;24.00;60.80
41533;DHT22;27262;-35.248;149.138;2024-03-08T01:41:07;24.00;60.90
41533;DHT22;27262;-35.248;149.138;2024-03-08T01:43:38;24.00;60.80
41533;DHT22;27262;-35.248;149.138;2024-03-08T01:46:10;24.00;60.70
41533;DHT22;27262;-35.248;149.138;2024-03-08T01:48:42;24.10;60.70
41533;DHT22;27262;-35.248;149.138;2024-03-08T01:51:13;24.00;60.70
41533;DHT22;27262;-35.248;149.138;2024-03-08T01:53:47;24.10;60.70
41533;DHT22;27262;-35.248;149.138;2024-03-08T01:56:18;24.10;60.80
41533;DHT22;27262;-35.248;149.138;2024-03-08T01:58:48;24.10;60.80
41533;DHT22;27262;-35.248;149.138;2024-03-08T02:01:19;24.10;60.80
41533;DHT22;27262;-35.248;149.138;2024-03-08T02:03:50;24.10;60.80
41533;DHT22;27262;-35.248;149.138;2024-03-08T02:06:21;24.10;60.80
41533;DHT22;27262;-35.248;149.138;2024-03-08T02:08:52;24.10;61.00
41533;DHT22;27262;-35.248;149.138;2024-03-08T02:11:22;24.20;61.00
41533;DHT22;27262;-35.248;149.138;2024-03-08T02:13:53;24.20;61.00
41533;DHT22;27262;-35.248;149.138;2024-03-08T02:16:23;24.20;61.10
41533;DHT22;27262;-35.248;149.138;2024-03-08T02:18:54;24.30;61.20
41533;DHT22;27262;-35.248;149.138;2024-03-08T02:21:25;24.30;61.30
41533;DHT22;27262;-35.248;149.138;2024-03-08T02:23:55;24.30;61.20
41533;DHT22;27262;-35.248;149.138;2024-03-08T02:26:27;24.30;61.10
41533;DHT22;27262;-35.248;149.138;2024-03-08T02:28:58;24.30;61.20
41533;DHT22;27262;-35.248;149.138;2024-03-08T02:31:28;24.30;61.20
41533;DHT22;27262;-35.248;149.138;2024-03-08T02:33:59;24.30;61.10
41533;DHT22;27262;-35.248;149.138;2024-03-08T02:36:29;24.40;61.10
41533;DHT22;27262;-35.248;149.138;2024-03-08T02:39:04;24.40;61.00
41533;DHT22;27262;-35.248;149.138;2024-03-08T02:41:37;24.40;60.90
41533;DHT22;27262;-35.248;149.138;2024-03-08T02:44:07;24.40;60.80
41533;DHT22;27262;-35.248;149.138;2024-03-08T02:46:38;24.40;60.70
41533;DHT22;27262;-35.248;149.138;2024-03-08T02:49:09;24.50;60.80
41533;DHT22;27262;-35.248;149.138;2024-03-08T02:51:41;24.50;60.90
41533;DHT22;27262;-35.248;149.138;2024-03-08T02:54:11;24.50;60.90
41533;DHT22;27262;-35.248;149.138;2024-03-08T02:56:41;24.50;61.00
41533;DHT22;27262;-35.248;149.138;2024-03-08T02:59:12;24.60;61.00
41533;DHT22;27262;-35.248;149.138;2024-03-08T03:01:43;24.50;60.90
41533;DHT22;27262;-35.248;149.138;2024-03-08T03:04:13;24.60;60.90
41533;DHT22;27262;-35.248;149.138;2024-03-08T03:06:43;24.60;61.00
41533;DHT22;27262;-35.248;149.138;2024-03-08T03:09:14;24.70;61.10
41533;DHT22;27262;-35.248;149.138;2024-03-08T03:11:46;24.60;60.90
41533;DHT22;27262;-35.248;149.138;2024-03-08T03:14:17;24.70;60.90
41533;DHT22;27262;-35.248;149.138;2024-03-08T03:16:47;24.70;60.70
41533;DHT22;27262;-35.248;149.138;2024-03-08T03:19:17;24.70;60.70
41533;DHT22;27262;-35.248;149.138;2024-03-08T03:21:48;24.70;60.70
41533;DHT22;27262;-35.248;149.138;2024-03-08T03:24:18;24.70;60.70
41533;DHT22;27262;-35.248;149.138;2024-03-08T03:26:50;24.80;60.90
41533;DHT22;27262;-35.248;149.138;2024-03-08T03:29:21;24.80;60.90
41533;DHT22;27262;-35.248;149.138;2024-03-08T03:31:51;24.80;60.80
41533;DHT22;27262;-35.248;149.138;2024-03-08T03:34:22;24.80;60.70
41533;DHT22;27262;-35.248;149.138;2024-03-08T03:36:52;24.90;60.70
41533;DHT22;27262;-35.248;149.138;2024-03-08T03:39:25;24.90;60.50
41533;DHT22;27262;-35.248;149.138;2024-03-08T03:41:56;24.90;60.40
41533;DHT22;27262;-35.248;149.138;2024-03-08T03:44:26;24.90;60.40
41533;DHT22;27262;-35.248;149.138;2024-03-08T03:46:57;24.90;60.30
41533;DHT22;27262;-35.248;149.138;2024-03-08T03:49:28;24.90;60.20
41533;DHT22;27262;-35.248;149.138;2024-03-08T03:51:58;25.00;60.20
41533;DHT22;27262;-35.248;149.138;2024-03-08T03:54:29;25.00;60.10
41533;DHT22;27262;-35.248;149.138;2024-03-08T03:57:00;25.00;60.00
41533;DHT22;27262;-35.248;149.138;2024-03-08T03:59:32;25.00;60.10
41533;DHT22;27262;-35.248;149.138;2024-03-08T04:02:02;25.00;60.00
41533;DHT22;27262;-35.248;149.138;2024-03-08T04:04:33;25.10;60.00
41533;DHT22;27262;-35.248;149.138;2024-03-08T04:07:03;25.10;60.00
41533;DHT22;27262;-35.248;149.138;2024-03-08T04:09:35;25.10;59.90
41533;DHT22;27262;-35.248;149.138;2024-03-08T04:12:06;25.10;60.20
41533;DHT22;27262;-35.248;149.138;2024-03-08T04:14:37;25.20;60.20
41533;DHT22;27262;-35.248;149.138;2024-03-08T04:17:09;25.20;60.20
41533;DHT22;27262;-35.248;149.138;2024-03-08T04:19:40;25.20;60.30
41533;DHT22;27262;-35.248;149.138;2024-03-08T04:22:11;25.20;60.20
41533;DHT22;27262;-35.248;149.138;2024-03-08T04:24:41;25.30;60.30
41533;DHT22;27262;-35.248;149.138;2024-03-08T04:27:11;25.30;60.50
41533;DHT22;27262;-35.248;149.138;2024-03-08T04:29:42;25.30;60.60
41533;DHT22;27262;-35.248;149.138;2024-03-08T04:32:12;25.30;60.60
41533;DHT22;27262;-35.248;149.138;2024-03-08T04:34:43;25.40;60.70
41533;DHT22;27262;-35.248;149.138;2024-03-08T04:37:13;25.40;60.80
41533;DHT22;27262;-35.248;149.138;2024-03-08T04:39:44;25.40;60.80
41533;DHT22;27262;-35.248;149.138;2024-03-08T04:42:15;25.40;60.80
41533;DHT22;27262;-35.248;149.138;2024-03-08T04:44:47;25.50;61.10
41533;DHT22;27262;-35.248;149.138;2024-03-08T04:47:18;25.50;61.10
41533;DHT22;27262;-35.248;149.138;2024-03-08T04:49:49;25.50;61.20
41533;DHT22;27262;-35.248;149.138;2024-03-08T04:52:20;25.50;61.20
41533;DHT22;27262;-35.248;149.138;2024-03-08T04:54:51;25.50;61.30
41533;DHT22;27262;-35.248;149.138;2024-03-08T04:57:21;25.50;61.40
41533;DHT22;27262;-35.248;149.138;2024-03-08T04:59:52;25.60;61.50
41533;DHT22;27262;-35.248;149.138;2024-03-08T05:02:22;25.60;61.50
41533;DHT22;27262;-35.248;149.138;2024-03-08T05:04:52;25.60;61.60
41533;DHT22;27262;-35.248;149.138;2024-03-08T05:07:23;25.60;61.50
41533;DHT22;27262;-35.248;149.138;2024-03-08T05:09:53;25.70;61.20
41533;DHT22;27262;-35.248;149.138;2024-03-08T05:12:23;25.70;61.00
41533;DHT22;27262;-35.248;149.138;2024-03-08T05:14:54;25.70;60.70
41533;DHT22;27262;-35.248;149.138;2024-03-08T05:17:25;25.70;60.50
41533;DHT22;27262;-35.248;149.138;2024-03-08T05:19:55;25.70;60.40
41533;DHT22;27262;-35.248;149.138;2024-03-08T05:22:26;25.80;60.40
41533;DHT22;27262;-35.248;149.138;2024-03-08T05:24:57;25.80;60.30
41533;DHT22;27262;-35.248;149.138;2024-03-08T05:27:28;25.80;60.30
41533;DHT22;27262;-35.248;149.138;2024-03-08T05:29:58;25.80;60.20
41533;DHT22;27262;-35.248;149.138;2024-03-08T05:32:29;25.80;60.30
41533;DHT22;27262;-35.248;149.138;2024-03-08T05:35:00;25.80;60.30
41533;DHT22;27262;-35.248;149.138;2024-03-08T05:37:30;25.80;60.20
41533;DHT22;27262;-35.248;149.138;2024-03-08T05:40:01;25.90;60.40
41533;DHT22;27262;-35.248;149.138;2024-03-08T05:42:31;25.90;60.10
41533;DHT22;27262;-35.248;149.138;2024-03-08T05:45:02;25.90;60.00
41533;DHT22;27262;-35.248;149.138;2024-03-08T05:47:41;25.90;59.90
41533;DHT22;27262;-35.248;149.138;2024-03-08T05:50:12;25.90;59.80
41533;DHT22;27262;-35.248;149.138;2024-03-08T05:52:44;26.00;59.80
41533;DHT22;27262;-35.248;149.138;2024-03-08T05:55:14;26.00;59.80
41533;DHT22;27262;-35.248;149.138;2024-03-08T05:57:45;26.00;59.80
41533;DHT22;27262;-35.248;149.138;2024-03-08T06:00:15;26.00;59.70
41533;DHT22;27262;-35.248;149.138;2024-03-08T06:02:45;26.00;59.70
41533;DHT22;27262;-35.248;149.138;2024-03-08T06:05:16;26.10;59.70
41533;DHT22;27262;-35.248;149.138;2024-03-08T06:07:46;26.10;59.70
41533;DHT22;27262;-35.248;149.138;2024-03-08T06:10:16;26.20;59.80
41533;DHT22;27262;-35.248;149.138;2024-03-08T06:12:47;26.10;59.70
41533;DHT22;27262;-35.248;149.138;2024-03-08T06:15:17;26.10;59.60
41533;DHT22;27262;-35.248;149.138;2024-03-08T06:17:50;26.20;59.50
41533;DHT22;27262;-35.248;149.138;2024-03-08T06:20:22;26.20;59.30
41533;DHT22;27262;-35.248;149.138;2024-03-08T06:22:56;26.20;59.50
41533;DHT22;27262;-35.248;149.138;2024-03-08T06:25:26;26.20;59.50
41533;DHT22;27262;-35.248;149.138;2024-03-08T06:27:56;26.20;59.60
41533;DHT22;27262;-35.248;149.138;2024-03-08T06:30:27;26.20;59.70
41533;DHT22;27262;-35.248;149.138;2024-03-08T06:32:57;26.30;59.90
41533;DHT22;27262;-35.248;149.138;2024-03-08T06:35:27;26.20;59.90
41533;DHT22;27262;-35.248;149.138;2024-03-08T06:37:59;26.30;60.00
41533;DHT22;27262;-35.248;149.138;2024-03-08T06:40:29;26.30;60.00
41533;DHT22;27262;-35.248;149.138;2024-03-08T06:42:59;26.30;60.10
41533;DHT22;27262;-35.248;149.138;2024-03-08T06:45:30;26.30;60.10
41533;DHT22;27262;-35.248;149.138;2024-03-08T06:48:00;26.30;60.10
41533;DHT22;27262;-35.248;149.138;2024-03-08T06:50:32;26.40;60.20
41533;DHT22;27262;-35.248;149.138;2024-03-08T06:53:02;26.40;60.10
41533;DHT22;27262;-35.248;149.138;2024-03-08T06:55:32;26.40;60.20
41533;DHT22;27262;-35.248;149.138;2024-03-08T06:58:03;26.40;60.10
41533;DHT22;27262;-35.248;149.138;2024-03-08T07:00:34;26.40;59.90
41533;DHT22;27262;-35.248;149.138;2024-03-08T07:03:08;26.40;59.80
41533;DHT22;27262;-35.248;149.138;2024-03-08T07:05:41;26.50;59.70
41533;DHT22;27262;-35.248;149.138;2024-03-08T07:08:12;26.50;59.50
41533;DHT22;27262;-35.248;149.138;2024-03-08T07:10:53;26.50;60.00
41533;DHT22;27262;-35.248;149.138;2024-03-08T07:13:23;26.50;59.20
41533;DHT22;27262;-35.248;149.138;2024-03-08T07:15:54;26.50;59.00
41533;DHT22;27262;-35.248;149.138;2024-03-08T07:18:24;26.50;58.90
41533;DHT22;27262;-35.248;149.138;2024-03-08T07:20:55;26.50;58.80
41533;DHT22;27262;-35.248;149.138;2024-03-08T07:23:26;26.50;58.70
41533;DHT22;27262;-35.248;149.138;2024-03-08T07:26:20;26.60;58.70
41533;DHT22;27262;-35.248;149.138;2024-03-08T07:28:51;26.60;58.50
41533;DHT22;27262;-35.248;149.138;2024-03-08T07:31:21;26.60;58.30
41533;DHT22;27262;-35.248;149.138;2024-03-08T07:34:11;26.50;58.10
41533;DHT22;27262;-35.248;149.138;2024-03-08T07:36:42;26.60;58.20
41533;DHT22;27262;-35.248;149.138;2024-03-08T07:39:12;26.60;58.10
41533;DHT22;27262;-35.248;149.138;2024-03-08T07:41:43;26.60;58.10
41533;DHT22;27262;-35.248;149.138;2024-03-08T07:44:13;26.60;58.10
41533;DHT22;27262;-35.248;149.138;2024-03-08T07:46:44;26.60;58.10
41533;DHT22;27262;-35.248;149.138;2024-03-08T07:49:14;26.60;58.10
41533;DHT22;27262;-35.248;149.138;2024-03-08T07:51:44;26.60;58.10
41533;DHT22;27262;-35.248;149.138;2024-03-08T07:54:15;26.60;58.10
41533;DHT22;27262;-35.248;149.138;2024-03-08T07:56:45;26.60;58.10
41533;DHT22;27262;-35.248;149.138;2024-03-08T07:59:16;26.60;58.10
41533;DHT22;27262;-35.248;149.138;2024-03-08T08:01:46;26.60;58.20
41533;DHT22;27262;-35.248;149.138;2024-03-08T08:04:17;26.60;58.20
41533;DHT22;27262;-35.248;149.138;2024-03-08T08:06:48;26.60;58.20
41533;DHT22;27262;-35.248;149.138;2024-03-08T08:09:20;26.60;58.30
41533;DHT22;27262;-35.248;149.138;2024-03-08T08:11:57;26.60;58.30
41533;DHT22;27262;-35.248;149.138;2024-03-08T08:14:27;26.60;58.40
41533;DHT22;27262;-35.248;149.138;2024-03-08T08:16:58;26.60;58.40
41533;DHT22;27262;-35.248;149.138;2024-03-08T08:19:33;26.60;58.40
41533;DHT22;27262;-35.248;149.138;2024-03-08T08:22:04;26.60;58.50
41533;DHT22;27262;-35.248;149.138;2024-03-08T08:24:35;26.60;58.50
41533;DHT22;27262;-35.248;149.138;2024-03-08T08:27:06;26.60;58.50
41533;DHT22;27262;-35.248;149.138;2024-03-08T08:29:38;26.60;58.50
41533;DHT22;27262;-35.248;149.138;2024-03-08T08:32:08;26.60;58.60
41533;DHT22;27262;-35.248;149.138;2024-03-08T08:34:40;26.60;58.60
41533;DHT22;27262;-35.248;149.138;2024-03-08T08:37:11;26.50;58.60
41533;DHT22;27262;-35.248;149.138;2024-03-08T08:39:44;26.60;58.60
41533;DHT22;27262;-35.248;149.138;2024-03-08T08:42:15;26.60;58.70
41533;DHT22;27262;-35.248;149.138;2024-03-08T08:44:45;26.60;58.70
41533;DHT22;27262;-35.248;149.138;2024-03-08T08:47:16;26.60;58.80
41533;DHT22;27262;-35.248;149.138;2024-03-08T08:49:49;26.60;58.80
41533;DHT22;27262;-35.248;149.138;2024-03-08T08:52:20;26.60;58.90
41533;DHT22;27262;-35.248;149.138;2024-03-08T08:54:51;26.60;58.90
41533;DHT22;27262;-35.248;149.138;2024-03-08T08:57:21;26.50;58.80
41533;DHT22;27262;-35.248;149.138;2024-03-08T08:59:52;26.60;58.90
41533;DHT22;27262;-35.248;149.138;2024-03-08T09:02:22;26.50;58.80
41533;DHT22;27262;-35.248;149.138;2024-03-08T09:04:52;26.60;58.90
41533;DHT22;27262;-35.248;149.138;2024-03-08T09:07:23;26.60;58.90
41533;DHT22;27262;-35.248;149.138;2024-03-08T09:09:54;26.60;58.90
41533;DHT22;27262;-35.248;149.138;2024-03-08T09:12:43;26.50;58.90
41533;DHT22;27262;-35.248;149.138;2024-03-08T09:15:14;26.50;58.90
41533;DHT22;27262;-35.248;149.138;2024-03-08T09:17:47;26.50;59.00
41533;DHT22;27262;-35.248;149.138;2024-03-08T09:20:18;26.50;59.00
41533;DHT22;27262;-35.248;149.138;2024-03-08T09:22:48;26.60;59.00
41533;DHT22;27262;-35.248;149.138;2024-03-08T09:25:18;26.50;59.00
41533;DHT22;27262;-35.248;149.138;2024-03-08T09:27:49;26.50;59.00
41533;DHT22;27262;-35.248;149.138;2024-03-08T09:30:19;26.50;59.00
41533;DHT22;27262;-35.248;149.138;2024-03-08T09:32:50;26.50;59.00
41533;DHT22;27262;-35.248;149.138;2024-03-08T09:35:23;26.50;59.00
41533;DHT22;27262;-35.248;149.138;2024-03-08T09:37:54;26.50;59.00
41533;DHT22;27262;-35.248;149.138;2024-03-08T09:40:25;26.50;59.10
41533;DHT22;27262;-35.248;149.138;2024-03-08T09:42:56;26.50;59.10
41533;DHT22;27262;-35.248;149.138;2024-03-08T09:45:27;26.50;59.10
41533;DHT22;27262;-35.248;149.138;2024-03-08T09:47:58;26.50;59.10
41533;DHT22;27262;-35.248;149.138;2024-03-08T09:50:29;26.50;59.20
41533;DHT22;27262;-35.248;149.138;2024-03-08T09:52:59;26.50;59.10
41533;DHT22;27262;-35.248;149.138;2024-03-08T09:55:30;26.50;59.10
41533;DHT22;27262;-35.248;149.138;2024-03-08T09:58:06;26.50;59.10
41533;DHT22;27262;-35.248;149.138;2024-03-08T10:00:55;26.50;59.20
41533;DHT22;27262;-35.248;149.138;2024-03-08T10:03:28;26.50;59.30
41533;DHT22;27262;-35.248;149.138;2024-03-08T10:05:59;26.50;59.20
41533;DHT22;27262;-35.248;149.138;2024-03-08T10:08:32;26.50;59.30
41533;DHT22;27262;-35.248;149.138;2024-03-08T10:11:03;26.50;59.20
41533;DHT22;27262;-35.248;149.138;2024-03-08T10:13:34;26.50;59.20
41533;DHT22;27262;-35.248;149.138;2024-03-08T10:16:05;26.50;59.30
41533;DHT22;27262;-35.248;149.138;2024-03-08T10:18:35;26.50;59.30
41533;DHT22;27262;-35.248;149.138;2024-03-08T10:21:08;26.50;59.30
41533;DHT22;27262;-35.248;149.138;2024-03-08T10:23:42;26.50;59.30
41533;DHT22;27262;-35.248;149.138;2024-03-08T10:26:16;26.50;59.30
41533;DHT22;27262;-35.248;149.138;2024-03-08T10:28:49;26.50;59.30
41533;DHT22;27262;-35.248;149.138;2024-03-08T10:31:20;26.50;59.30
41533;DHT22;27262;-35.248;149.138;2024-03-08T10:33:51;26.50;59.30
41533;DHT22;27262;-35.248;149.138;2024-03-08T10:36:21;26.50;59.30
41533;DHT22;27262;-35.248;149.138;2024-03-08T10:38:52;26.50;59.30
41533;DHT22;27262;-35.248;149.138;2024-03-08T10:41:24;26.40;59.30
41533;DHT22;27262;-35.248;149.138;2024-03-08T10:47:26;26.50;59.30
41533;DHT22;27262;-35.248;149.138;2024-03-08T10:50:20;26.40;59.40
41533;DHT22;27262;-35.248;149.138;2024-03-08T10:52:52;26.40;59.40
41533;DHT22;27262;-35.248;149.138;2024-03-08T10:55:23;26.40;59.40
41533;DHT22;27262;-35.248;149.138;2024-03-08T10:57:56;26.40;59.40
41533;DHT22;27262;-35.248;149.138;2024-03-08T11:00:26;26.40;59.40
41533;DHT22;27262;-35.248;149.138;2024-03-08T11:02:57;26.40;59.40
41533;DHT22;27262;-35.248;149.138;2024-03-08T11:05:40;26.40;59.50
41533;DHT22;27262;-35.248;149.138;2024-03-08T11:08:23;26.40;59.40
41533;DHT22;27262;-35.248;149.138;2024-03-08T11:10:56;26.40;60.10
41533;DHT22;27262;-35.248;149.138;2024-03-08T11:13:42;26.40;59.50
41533;DHT22;27262;-35.248;149.138;2024-03-08T11:21:44;26.40;59.50
41533;DHT22;27262;-35.248;149.138;2024-03-08T11:24:14;26.40;59.50
41533;DHT22;27262;-35.248;149.138;2024-03-08T11:26:46;26.40;59.50
41533;DHT22;27262;-35.248;149.138;2024-03-08T11:34:47;26.40;59.60
41533;DHT22;27262;-35.248;149.138;2024-03-08T11:37:20;26.40;59.60
41533;DHT22;27262;-35.248;149.138;2024-03-08T11:39:52;26.40;59.60
41533;DHT22;27262;-35.248;149.138;2024-03-08T11:42:23;26.40;59.60
41533;DHT22;27262;-35.248;149.138;2024-03-08T11:44:53;26.40;59.60
41533;DHT22;27262;-35.248;149.138;2024-03-08T11:47:24;26.40;59.60
41533;DHT22;27262;-35.248;149.138;2024-03-08T11:49:55;26.30;59.90
41533;DHT22;27262;-35.248;149.138;2024-03-08T11:52:26;26.30;59.60
41533;DHT22;27262;-35.248;149.138;2024-03-08T11:54:56;26.30;59.60
41533;DHT22;27262;-35.248;149.138;2024-03-08T11:57:27;26.40;59.60
41533;DHT22;27262;-35.248;149.138;2024-03-08T11:59:59;26.30;59.60
41533;DHT22;27262;-35.248;149.138;2024-03-08T12:03:05;26.30;59.60
41533;DHT22;27262;-35.248;149.138;2024-03-08T12:05:36;26.40;59.60
41533;DHT22;27262;-35.248;149.138;2024-03-08T12:08:08;26.30;59.60
41533;DHT22;27262;-35.248;149.138;2024-03-08T12:10:42;26.30;59.60
41533;DHT22;27262;-35.248;149.138;2024-03-08T12:13:17;26.30;59.60
41533;DHT22;27262;-35.248;149.138;2024-03-08T12:15:48;26.30;59.60
41533;DHT22;27262;-35.248;149.138;2024-03-08T12:18:18;26.30;59.60
41533;DHT22;27262;-35.248;149.138;2024-03-08T12:20:49;26.30;59.60
41533;DHT22;27262;-35.248;149.138;2024-03-08T12:23:19;26.30;59.60
41533;DHT22;27262;-35.248;149.138;2024-03-08T12:25:50;26.30;59.60
41533;DHT22;27262;-35.248;149.138;2024-03-08T12:28:20;26.30;59.60
41533;DHT22;27262;-35.248;149.138;2024-03-08T12:30:52;26.30;59.60
41533;DHT22;27262;-35.248;149.138;2024-03-08T12:33:28;26.30;59.60
41533;DHT22;27262;-35.248;149.138;2024-03-08T12:36:00;26.30;59.60
41533;DHT22;27262;-35.248;149.138;2024-03-08T12:38:30;26.30;59.60
41533;DHT22;27262;-35.248;149.138;2024-03-08T12:41:01;26.30;59.60
41533;DHT22;27262;-35.248;149.138;2024-03-08T12:43:32;26.30;59.70
41533;DHT22;27262;-35.248;149.138;2024-03-08T12:46:03;26.30;59.70
41533;DHT22;27262;-35.248;149.138;2024-03-08T12:48:35;26.30;59.70
41533;DHT22;27262;-35.248;149.138;2024-03-08T12:51:09;26.30;59.70
41533;DHT22;27262;-35.248;149.138;2024-03-08T12:53:40;26.30;59.70
41533;DHT22;27262;-35.248;149.138;2024-03-08T12:56:31;26.30;59.80
41533;DHT22;27262;-35.248;149.138;2024-03-08T12:59:07;26.30;59.80
41533;DHT22;27262;-35.248;149.138;2024-03-08T13:01:38;26.30;59.80
41533;DHT22;27262;-35.248;149.138;2024-03-08T13:04:08;26.30;59.80
41533;DHT22;27262;-35.248;149.138;2024-03-08T13:06:40;26.30;59.80
41533;DHT22;27262;-35.248;149.138;2024-03-08T13:09:11;26.30;59.80
41533;DHT22;27262;-35.248;149.138;2024-03-08T13:11:41;26.30;59.80
41533;DHT22;27262;-35.248;149.138;2024-03-08T13:14:12;26.20;59.80
41533;DHT22;27262;-35.248;149.138;2024-03-08T13:16:43;26.20;59.80
41533;DHT22;27262;-35.248;149.138;2024-03-08T13:19:17;26.20;59.80
41533;DHT22;27262;-35.248;149.138;2024-03-08T13:21:51;26.20;59.80
41533;DHT22;27262;-35.248;149.138;2024-03-08T13:24:22;26.20;59.80
41533;DHT22;27262;-35.248;149.138;2024-03-08T13:26:54;26.20;59.80
41533;DHT22;27262;-35.248;149.138;2024-03-08T13:29:24;26.20;59.80
41533;DHT22;27262;-35.248;149.138;2024-03-08T13:31:54;26.20;59.80
41533;DHT22;27262;-35.248;149.138;2024-03-08T13:34:26;26.20;59.80
41533;DHT22;27262;-35.248;149.138;2024-03-08T13:36:58;26.20;59.90
41533;DHT22;27262;-35.248;149.138;2024-03-08T13:39:30;26.20;59.90
41533;DHT22;27262;-35.248;149.138;2024-03-08T13:42:15;26.20;59.90
41533;DHT22;27262;-35.248;149.138;2024-03-08T13:44:49;26.20;59.90
41533;DHT22;27262;-35.248;149.138;2024-03-08T13:47:20;26.20;60.00
41533;DHT22;27262;-35.248;149.138;2024-03-08T13:49:51;26.20;60.00
41533;DHT22;27262;-35.248;149.138;2024-03-08T13:52:21;26.20;60.00
41533;DHT22;27262;-35.248;149.138;2024-03-08T13:54:55;26.20;60.00
41533;DHT22;27262;-35.248;149.138;2024-03-08T13:57:28;26.20;60.00
41533;DHT22;27262;-35.248;149.138;2024-03-08T13:59:59;26.20;59.90
41533;DHT22;27262;-35.248;149.138;2024-03-08T14:02:30;26.20;59.60
41533;DHT22;27262;-35.248;149.138;2024-03-08T14:05:01;26.20;59.30
41533;DHT22;27262;-35.248;149.138;2024-03-08T14:07:31;26.10;59.10
41533;DHT22;27262;-35.248;149.138;2024-03-08T14:10:04;26.10;59.20
41533;DHT22;27262;-35.248;149.138;2024-03-08T14:12:36;26.10;59.30
41533;DHT22;27262;-35.248;149.138;2024-03-08T14:15:08;26.10;59.30
41533;DHT22;27262;-35.248;149.138;2024-03-08T14:17:39;26.10;59.00
41533;DHT22;27262;-35.248;149.138;2024-03-08T14:20:10;26.00;58.60
41533;DHT22;27262;-35.248;149.138;2024-03-08T14:22:42;26.00;58.40
41533;DHT22;27262;-35.248;149.138;2024-03-08T14:25:13;26.00;58.10
41533;DHT22;27262;-35.248;149.138;2024-03-08T14:27:46;26.00;57.90
41533;DHT22;27262;-35.248;149.138;2024-03-08T14:30:17;25.90;57.70
41533;DHT22;27262;-35.248;149.138;2024-03-08T14:33:07;25.90;58.10
41533;DHT22;27262;-35.248;149.138;2024-03-08T14:35:40;25.90;58.10
41533;DHT22;27262;-35.248;149.138;2024-03-08T14:38:12;25.90;58.30
41533;DHT22;27262;-35.248;149.138;2024-03-08T14:40:45;25.90;58.40
41533;DHT22;27262;-35.248;149.138;2024-03-08T14:43:16;25.80;58.40
41533;DHT22;27262;-35.248;149.138;2024-03-08T14:45:49;25.80;58.40
41533;DHT22;27262;-35.248;149.138;2024-03-08T14:48:20;25.80;58.40
41533;DHT22;27262;-35.248;149.138;2024-03-08T14:50:54;25.80;58.20
41533;DHT22;27262;-35.248;149.138;2024-03-08T14:53:24;25.80;58.00
41533;DHT22;27262;-35.248;149.138;2024-03-08T14:55:55;25.80;57.80
41533;DHT22;27262;-35.248;149.138;2024-03-08T14:58:26;25.80;57.70
41533;DHT22;27262;-35.248;149.138;2024-03-08T15:00:57;25.80;57.40
41533;DHT22;27262;-35.248;149.138;2024-03-08T15:03:29;25.80;57.30
41533;DHT22;27262;-35.248;149.138;2024-03-08T15:06:00;25.70;57.10
41533;DHT22;27262;-35.248;149.138;2024-03-08T15:08:30;25.70;57.00
41533;DHT22;27262;-35.248;149.138;2024-03-08T15:11:02;25.70;57.10
41533;DHT22;27262;-35.248;149.138;2024-03-08T15:13:33;25.70;57.50
41533;DHT22;27262;-35.248;149.138;2024-03-08T15:16:11;25.70;57.90
41533;DHT22;27262;-35.248;149.138;2024-03-08T15:18:47;25.70;58.30
41533;DHT22;27262;-35.248;149.138;2024-03-08T15:21:19;25.60;58.30
41533;DHT22;27262;-35.248;149.138;2024-03-08T15:23:50;25.60;58.30
41533;DHT22;27262;-35.248;149.138;2024-03-08T15:26:21;25.60;58.60
41533;DHT22;27262;-35.248;149.138;2024-03-08T15:28:52;25.60;58.80